Terminal Aerodrome Forecast
Issued by NWS

Home | Current Version | Previous Version | Graphics & Text | Print | Product List | Glossary On
Versions: 1 2 3 4 5 6 7 8 9 10 11 12 13 14 15 16 17 18 19 20
603
FTUS43 KGRB 281737
TAFMTW
TAF
KMTW 281737Z 2818/2918 22003KT P6SM SCT025
      TEMPO 2818/2820 SCT015 BKN025
     FM282200 14004KT P6SM SKC
     FM290200 VRB03KT P6SM FEW250
     FM290800 VRB03KT 3SM BR SCT250
      TEMPO 2908/2912 1SM BR BKN002
     FM291500 18005KT P6SM BKN025=

USA.gov is the U.S. government's official web portal to all federal, state and local government web resources and services.